sensor_id;sensor_type;location;lat;lon;timestamp;pressure;altitude;pressure_sealevel;temperature;humidity
78210;BME280;67485;48.816;9.930;2023-04-07T00:02:00;96887.91;;;6.61;68.29
78210;BME280;67485;48.816;9.930;2023-04-07T00:04:26;96887.91;;;6.61;68.95
78210;BME280;67485;48.816;9.930;2023-04-07T00:06:52;96882.69;;;6.64;70.32
78210;BME280;67485;48.816;9.930;2023-04-07T00:09:17;96885.41;;;6.50;71.40
78210;BME280;67485;48.816;9.930;2023-04-07T00:11:43;96882.00;;;6.42;71.16
78210;BME280;67485;48.816;9.930;2023-04-07T00:14:09;96889.00;;;6.40;71.45
78210;BME280;67485;48.816;9.930;2023-04-07T00:16:34;96889.00;;;6.37;72.67
78210;BME280;67485;48.816;9.930;2023-04-07T00:19:00;96879.47;;;6.34;72.12
78210;BME280;67485;48.816;9.930;2023-04-07T00:21:26;96877.81;;;6.25;73.45
78210;BME280;67485;48.816;9.930;2023-04-07T00:23:52;96883.94;;;6.20;73.11
78210;BME280;67485;48.816;9.930;2023-04-07T00:26:17;96878.72;;;6.21;73.48
78210;BME280;67485;48.816;9.930;2023-04-07T00:28:43;96877.91;;;6.16;74.15
78210;BME280;67485;48.816;9.930;2023-04-07T00:31:09;96871.91;;;6.08;72.95
78210;BME280;67485;48.816;9.930;2023-04-07T00:33:35;96866.69;;;6.05;73.14
78210;BME280;67485;48.816;9.930;2023-04-07T00:36:00;96871.97;;;5.95;74.33
78210;BME280;67485;48.816;9.930;2023-04-07T00:38:26;96872.94;;;5.80;74.89
78210;BME280;67485;48.816;9.930;2023-04-07T00:40:58;96873.88;;;5.65;75.09
78210;BME280;67485;48.816;9.930;2023-04-07T00:43:24;96863.56;;;5.53;75.00
78210;BME280;67485;48.816;9.930;2023-04-07T00:45:51;96857.47;;;5.56;76.53
78210;BME280;67485;48.816;9.930;2023-04-07T00:48:16;96851.38;;;5.61;75.27
78210;BME280;67485;48.816;9.930;2023-04-07T00:50:44;96848.75;;;5.64;75.32
78210;BME280;67485;48.816;9.930;2023-04-07T00:53:11;96847.84;;;5.72;75.04
78210;BME280;67485;48.816;9.930;2023-04-07T00:55:36;96835.72;;;5.71;75.29
78210;BME280;67485;48.816;9.930;2023-04-07T00:58:02;96833.97;;;5.73;74.21
78210;BME280;67485;48.816;9.930;2023-04-07T01:00:32;96830.56;;;5.64;74.56
78210;BME280;67485;48.816;9.930;2023-04-07T01:03:05;96831.47;;;5.59;74.78
78210;BME280;67485;48.816;9.930;2023-04-07T01:05:56;96816.78;;;5.53;75.71
78210;BME280;67485;48.816;9.930;2023-04-07T01:08:58;96823.75;;;5.51;76.79
78210;BME280;67485;48.816;9.930;2023-04-07T01:11:48;96821.19;;;5.40;77.49
78210;BME280;67485;48.816;9.930;2023-04-07T01:14:19;96819.53;;;5.30;78.29
78210;BME280;67485;48.816;9.930;2023-04-07T01:16:54;96815.19;;;5.33;78.13
78210;BME280;67485;48.816;9.930;2023-04-07T01:19:47;96813.41;;;5.39;77.31
78210;BME280;67485;48.816;9.930;2023-04-07T01:22:20;96806.50;;;5.38;78.35
78210;BME280;67485;48.816;9.930;2023-04-07T01:28:26;96797.78;;;5.42;78.35
78210;BME280;67485;48.816;9.930;2023-04-07T01:30:57;96793.44;;;5.44;80.35
78210;BME280;67485;48.816;9.930;2023-04-07T01:33:24;96783.97;;;5.36;79.10
78210;BME280;67485;48.816;9.930;2023-04-07T01:35:50;96787.41;;;5.42;78.96
78210;BME280;67485;48.816;9.930;2023-04-07T01:38:17;96789.13;;;5.43;79.36
78210;BME280;67485;48.816;9.930;2023-04-07T01:40:44;96788.25;;;5.44;80.60
78210;BME280;67485;48.816;9.930;2023-04-07T01:43:11;96791.66;;;5.54;78.34
78210;BME280;67485;48.816;9.930;2023-04-07T01:45:38;96782.16;;;5.48;78.35
78210;BME280;67485;48.816;9.930;2023-04-07T01:48:05;96782.16;;;5.48;77.88
78210;BME280;67485;48.816;9.930;2023-04-07T01:50:32;96773.53;;;5.46;78.48
78210;BME280;67485;48.816;9.930;2023-04-07T01:52:59;96771.72;;;5.54;78.24
78210;BME280;67485;48.816;9.930;2023-04-07T01:55:27;96769.97;;;5.56;77.12
78210;BME280;67485;48.816;9.930;2023-04-07T01:58:04;96763.00;;;5.61;77.46
78210;BME280;67485;48.816;9.930;2023-04-07T02:00:31;96767.31;;;5.64;77.00
78210;BME280;67485;48.816;9.930;2023-04-07T02:03:08;96770.78;;;5.66;77.44
78210;BME280;67485;48.816;9.930;2023-04-07T02:05:37;96767.28;;;5.67;76.70
78210;BME280;67485;48.816;9.930;2023-04-07T02:08:07;96764.72;;;5.62;78.76
78210;BME280;67485;48.816;9.930;2023-04-07T02:10:36;96762.13;;;5.62;78.09
78210;BME280;67485;48.816;9.930;2023-04-07T02:13:09;96757.81;;;5.58;78.31
78210;BME280;67485;48.816;9.930;2023-04-07T02:15:39;96751.81;;;5.50;77.57
78210;BME280;67485;48.816;9.930;2023-04-07T02:18:06;96747.53;;;5.43;77.73
78210;BME280;67485;48.816;9.930;2023-04-07T02:20:36;96746.72;;;5.38;78.63
78210;BME280;67485;48.816;9.930;2023-04-07T02:23:02;96749.31;;;5.34;78.64
78210;BME280;67485;48.816;9.930;2023-04-07T02:25:30;96745.06;;;5.27;79.66
78210;BME280;67485;48.816;9.930;2023-04-07T02:27:57;96753.78;;;5.18;80.23
78210;BME280;67485;48.816;9.930;2023-04-07T02:30:24;96746.91;;;5.11;80.70
78210;BME280;67485;48.816;9.930;2023-04-07T02:32:50;96739.94;;;5.12;80.78
78210;BME280;67485;48.816;9.930;2023-04-07T02:35:16;96734.78;;;5.09;81.13
78210;BME280;67485;48.816;9.930;2023-04-07T02:37:43;96735.66;;;5.08;81.21
78210;BME280;67485;48.816;9.930;2023-04-07T02:40:09;96726.97;;;5.12;81.17
78210;BME280;67485;48.816;9.930;2023-04-07T02:42:35;96721.75;;;5.12;80.77
78210;BME280;67485;48.816;9.930;2023-04-07T02:45:02;96722.59;;;5.17;80.99
78210;BME280;67485;48.816;9.930;2023-04-07T02:47:29;96718.25;;;5.19;80.57
78210;BME280;67485;48.816;9.930;2023-04-07T02:49:55;96720.88;;;5.17;80.71
78210;BME280;67485;48.816;9.930;2023-04-07T02:52:20;96717.41;;;5.17;81.34
78210;BME280;67485;48.816;9.930;2023-04-07T02:54:46;96719.16;;;5.16;81.62
78210;BME280;67485;48.816;9.930;2023-04-07T02:57:12;96719.13;;;5.21;80.59
78210;BME280;67485;48.816;9.930;2023-04-07T02:59:39;96714.75;;;5.26;80.72
78210;BME280;67485;48.816;9.930;2023-04-07T03:02:06;96715.63;;;5.25;81.26
78210;BME280;67485;48.816;9.930;2023-04-07T03:04:32;96709.56;;;5.26;80.93
78210;BME280;67485;48.816;9.930;2023-04-07T03:06:58;96702.63;;;5.25;81.42
78210;BME280;67485;48.816;9.930;2023-04-07T03:09:26;96704.34;;;5.26;81.01
78210;BME280;67485;48.816;9.930;2023-04-07T03:11:52;96706.03;;;5.32;80.54
78210;BME280;67485;48.816;9.930;2023-04-07T03:14:18;96706.06;;;5.30;80.22
78210;BME280;67485;48.816;9.930;2023-04-07T03:16:46;96697.44;;;5.28;80.62
78210;BME280;67485;48.816;9.930;2023-04-07T03:19:13;96690.47;;;5.30;79.79
78210;BME280;67485;48.816;9.930;2023-04-07T03:21:42;96693.00;;;5.38;78.92
78210;BME280;67485;48.816;9.930;2023-04-07T03:24:08;96686.91;;;5.41;78.19
78210;BME280;67485;48.816;9.930;2023-04-07T03:26:34;96690.34;;;5.46;78.43
78210;BME280;67485;48.816;9.930;2023-04-07T03:29:01;96692.91;;;5.50;79.56
78210;BME280;67485;48.816;9.930;2023-04-07T03:31:29;96688.69;;;5.39;80.83
78210;BME280;67485;48.816;9.930;2023-04-07T03:33:55;96689.63;;;5.25;81.42
78210;BME280;67485;48.816;9.930;2023-04-07T03:36:21;96682.75;;;5.19;82.56
78210;BME280;67485;48.816;9.930;2023-04-07T03:38:50;96694.88;;;5.22;82.44
78210;BME280;67485;48.816;9.930;2023-04-07T03:41:17;96689.69;;;5.22;82.85
78210;BME280;67485;48.816;9.930;2023-04-07T03:43:43;96677.56;;;5.21;83.02
78210;BME280;67485;48.816;9.930;2023-04-07T03:46:09;96686.94;;;5.34;82.91
78210;BME280;67485;48.816;9.930;2023-04-07T03:48:35;96680.00;;;5.40;82.21
78210;BME280;67485;48.816;9.930;2023-04-07T03:51:09;96679.09;;;5.44;81.61
78210;BME280;67485;48.816;9.930;2023-04-07T03:53:34;96678.19;;;5.48;81.49
78210;BME280;67485;48.816;9.930;2023-04-07T03:56:10;96674.69;;;5.52;80.34
78210;BME280;67485;48.816;9.930;2023-04-07T03:58:48;96672.06;;;5.55;79.82
78210;BME280;67485;48.816;9.930;2023-04-07T04:01:26;96672.09;;;5.54;79.17
78210;BME280;67485;48.816;9.930;2023-04-07T04:03:53;96664.31;;;5.49;79.51
78210;BME280;67485;48.816;9.930;2023-04-07T04:06:29;96667.78;;;5.51;79.04
78210;BME280;67485;48.816;9.930;2023-04-07T04:09:06;96670.38;;;5.48;79.62
78210;BME280;67485;48.816;9.930;2023-04-07T04:11:35;96664.38;;;5.46;79.35
78210;BME280;67485;48.816;9.930;2023-04-07T04:14:03;96658.31;;;5.44;79.49
78210;BME280;67485;48.816;9.930;2023-04-07T04:16:30;96655.72;;;5.44;79.48
78210;BME280;67485;48.816;9.930;2023-04-07T04:19:00;96659.22;;;5.40;79.78
78210;BME280;67485;48.816;9.930;2023-04-07T04:21:28;96654.91;;;5.39;79.61
78210;BME280;67485;48.816;9.930;2023-04-07T04:23:55;96656.59;;;5.38;80.41
78210;BME280;67485;48.816;9.930;2023-04-07T04:26:20;96669.63;;;5.36;79.99
78210;BME280;67485;48.816;9.930;2023-04-07T04:28:51;96657.53;;;5.32;80.44
78210;BME280;67485;48.816;9.930;2023-04-07T04:31:18;96660.97;;;5.34;80.01
78210;BME280;67485;48.816;9.930;2023-04-07T04:33:45;96664.47;;;5.33;80.22
78210;BME280;67485;48.816;9.930;2023-04-07T04:36:10;96660.09;;;5.35;80.24
78210;BME280;67485;48.816;9.930;2023-04-07T04:38:36;96670.47;;;5.40;79.75
78210;BME280;67485;48.816;9.930;2023-04-07T04:41:07;96660.06;;;5.42;78.89
78210;BME280;67485;48.816;9.930;2023-04-07T04:43:33;96665.16;;;5.49;79.82
78210;BME280;67485;48.816;9.930;2023-04-07T04:46:00;96667.75;;;5.54;78.77
78210;BME280;67485;48.816;9.930;2023-04-07T04:48:28;96666.88;;;5.54;78.43
78210;BME280;67485;48.816;9.930;2023-04-07T04:50:54;96673.81;;;5.55;78.78
78210;BME280;67485;48.816;9.930;2023-04-07T04:53:20;96679.00;;;5.56;78.89
78210;BME280;67485;48.816;9.930;2023-04-07T04:55:54;96672.94;;;5.57;79.01
78210;BME280;67485;48.816;9.930;2023-04-07T04:58:24;96676.41;;;5.53;79.70
78210;BME280;67485;48.816;9.930;2023-04-07T05:00:54;96676.44;;;5.50;80.74
78210;BME280;67485;48.816;9.930;2023-04-07T05:03:29;96684.25;;;5.48;82.13
78210;BME280;67485;48.816;9.930;2023-04-07T05:05:58;96678.13;;;5.54;81.54
78210;BME280;67485;48.816;9.930;2023-04-07T05:08:24;96677.25;;;5.55;80.72
78210;BME280;67485;48.816;9.930;2023-04-07T05:10:50;96672.94;;;5.54;82.12
78210;BME280;67485;48.816;9.930;2023-04-07T05:13:20;96668.56;;;5.59;81.90
78210;BME280;67485;48.816;9.930;2023-04-07T05:15:46;96672.06;;;5.55;82.94
78210;BME280;67485;48.816;9.930;2023-04-07T05:18:12;96672.94;;;5.57;83.29
78210;BME280;67485;48.816;9.930;2023-04-07T05:20:39;96669.38;;;5.64;84.66
78210;BME280;67485;48.816;9.930;2023-04-07T05:23:07;96668.63;;;5.51;85.55
78210;BME280;67485;48.816;9.930;2023-04-07T05:25:33;96678.19;;;5.48;85.87
78210;BME280;67485;48.816;9.930;2023-04-07T05:28:02;96669.56;;;5.46;85.94
78210;BME280;67485;48.816;9.930;2023-04-07T05:30:28;96672.09;;;5.54;84.73
78210;BME280;67485;48.816;9.930;2023-04-07T05:32:54;96674.69;;;5.52;84.56
78210;BME280;67485;48.816;9.930;2023-04-07T05:35:35;96673.88;;;5.48;85.02
78210;BME280;67485;48.816;9.930;2023-04-07T05:38:00;96665.22;;;5.45;84.49
78210;BME280;67485;48.816;9.930;2023-04-07T05:40:27;96666.16;;;5.38;86.60
78210;BME280;67485;48.816;9.930;2023-04-07T05:42:55;96669.66;;;5.33;86.56
78210;BME280;67485;48.816;9.930;2023-04-07T05:45:21;96666.28;;;5.22;87.59
78210;BME280;67485;48.816;9.930;2023-04-07T05:47:49;96668.06;;;5.14;89.45
78210;BME280;67485;48.816;9.930;2023-04-07T05:50:19;96671.56;;;5.11;90.09
78210;BME280;67485;48.816;9.930;2023-04-07T05:52:46;96675.00;;;5.15;91.72
78210;BME280;67485;48.816;9.930;2023-04-07T05:55:22;96664.44;;;5.35;91.19
78210;BME280;67485;48.816;9.930;2023-04-07T05:57:48;96666.00;;;5.53;88.68
78210;BME280;67485;48.816;9.930;2023-04-07T06:00:17;96662.59;;;5.48;90.31
78210;BME280;67485;48.816;9.930;2023-04-07T06:02:52;96669.59;;;5.38;90.61
78210;BME280;67485;48.816;9.930;2023-04-07T06:05:19;96662.75;;;5.32;91.18
78210;BME280;67485;48.816;9.930;2023-04-07T06:07:47;96670.59;;;5.23;92.27
78210;BME280;67485;48.816;9.930;2023-04-07T06:10:14;96672.34;;;5.21;92.82
78210;BME280;67485;48.816;9.930;2023-04-07T06:12:40;96671.53;;;5.16;92.79
78210;BME280;67485;48.816;9.930;2023-04-07T06:15:06;96662.88;;;5.11;93.15
78210;BME280;67485;48.816;9.930;2023-04-07T06:17:31;96664.59;;;5.15;93.52
78210;BME280;67485;48.816;9.930;2023-04-07T06:19:57;96661.09;;;5.19;93.92
78210;BME280;67485;48.816;9.930;2023-04-07T06:22:23;96660.13;;;5.34;93.56
78210;BME280;67485;48.816;9.930;2023-04-07T06:24:49;96659.13;;;5.49;92.31
78210;BME280;67485;48.816;9.930;2023-04-07T06:27:14;96667.78;;;5.48;92.14
78210;BME280;67485;48.816;9.930;2023-04-07T06:29:41;96662.66;;;5.42;92.78
78210;BME280;67485;48.816;9.930;2023-04-07T06:32:07;96666.22;;;5.31;92.99
78210;BME280;67485;48.816;9.930;2023-04-07T06:34:34;96673.22;;;5.20;93.88
78210;BME280;67485;48.816;9.930;2023-04-07T06:37:00;96674.13;;;5.16;93.99
78210;BME280;67485;48.816;9.930;2023-04-07T06:39:26;96673.22;;;5.17;94.86
78210;BME280;67485;48.816;9.930;2023-04-07T06:41:52;96669.81;;;5.15;95.07
78210;BME280;67485;48.816;9.930;2023-04-07T06:44:18;96669.69;;;5.26;93.82
78210;BME280;67485;48.816;9.930;2023-04-07T06:46:43;96667.09;;;5.29;93.13
78210;BME280;67485;48.816;9.930;2023-04-07T06:49:11;96666.22;;;5.31;92.87
78210;BME280;67485;48.816;9.930;2023-04-07T06:51:37;96665.31;;;5.34;93.15
78210;BME280;67485;48.816;9.930;2023-04-07T06:54:03;96666.16;;;5.38;92.99
78210;BME280;67485;48.816;9.930;2023-04-07T06:56:29;96667.91;;;5.35;93.10
78210;BME280;67485;48.816;9.930;2023-04-07T06:58:55;96673.09;;;5.39;93.78
78210;BME280;67485;48.816;9.930;2023-04-07T07:01:21;96671.31;;;5.41;92.66
78210;BME280;67485;48.816;9.930;2023-04-07T07:03:46;96676.47;;;5.47;94.28
78210;BME280;67485;48.816;9.930;2023-04-07T07:06:12;96669.47;;;5.52;93.14
78210;BME280;67485;48.816;9.930;2023-04-07T07:08:38;96672.97;;;5.51;93.28
78210;BME280;67485;48.816;9.930;2023-04-07T07:11:03;96672.06;;;5.55;93.77
78210;BME280;67485;48.816;9.930;2023-04-07T07:13:29;96672.03;;;5.58;93.70
78210;BME280;67485;48.816;9.930;2023-04-07T07:15:55;96672.97;;;5.51;93.95
78210;BME280;67485;48.816;9.930;2023-04-07T07:18:21;96683.31;;;5.57;94.33
78210;BME280;67485;48.816;9.930;2023-04-07T07:20:46;96680.59;;;5.71;93.28
78210;BME280;67485;48.816;9.930;2023-04-07T07:23:12;96674.50;;;5.74;92.95
78210;BME280;67485;48.816;9.930;2023-04-07T07:25:38;96680.56;;;5.73;92.01
78210;BME280;67485;48.816;9.930;2023-04-07T07:28:03;96683.16;;;5.73;91.41
78210;BME280;67485;48.816;9.930;2023-04-07T07:30:29;96678.81;;;5.76;91.43
78210;BME280;67485;48.816;9.930;2023-04-07T07:32:56;96684.75;;;5.88;91.42
78210;BME280;67485;48.816;9.930;2023-04-07T07:35:21;96683.88;;;5.87;90.91
78210;BME280;67485;48.816;9.930;2023-04-07T07:37:47;96676.03;;;5.95;89.92
78210;BME280;67485;48.816;9.930;2023-04-07T07:40:13;96679.47;;;5.95;90.17
78210;BME280;67485;48.816;9.930;2023-04-07T07:42:39;96679.53;;;5.92;90.95
78210;BME280;67485;48.816;9.930;2023-04-07T07:45:05;96686.38;;;5.99;91.55
78210;BME280;67485;48.816;9.930;2023-04-07T07:47:31;96685.44;;;6.10;90.91
78210;BME280;67485;48.816;9.930;2023-04-07T07:49:57;96679.34;;;6.09;90.79
78210;BME280;67485;48.816;9.930;2023-04-07T07:52:22;96687.16;;;6.09;90.13
78210;BME280;67485;48.816;9.930;2023-04-07T07:54:49;96686.91;;;6.32;90.73
78210;BME280;67485;48.816;9.930;2023-04-07T07:57:15;96682.38;;;6.47;90.37
78210;BME280;67485;48.816;9.930;2023-04-07T07:59:41;96685.59;;;6.68;89.28
78210;BME280;67485;48.816;9.930;2023-04-07T08:02:08;96683.63;;;6.85;89.10
78210;BME280;67485;48.816;9.930;2023-04-07T08:04:34;96693.06;;;6.92;88.18
78210;BME280;67485;48.816;9.930;2023-04-07T08:07:02;96688.22;;;6.66;87.37
78210;BME280;67485;48.816;9.930;2023-04-07T08:09:28;96685.50;;;6.74;88.44
78210;BME280;67485;48.816;9.930;2023-04-07T08:11:54;96680.31;;;6.72;88.12
78210;BME280;67485;48.816;9.930;2023-04-07T08:14:19;96679.25;;;6.86;88.11
78210;BME280;67485;48.816;9.930;2023-04-07T08:16:45;96683.53;;;6.90;87.13
78210;BME280;67485;48.816;9.930;2023-04-07T08:19:11;96683.09;;;7.21;86.41
78210;BME280;67485;48.816;9.930;2023-04-07T08:21:38;96679.38;;;7.36;86.06
78210;BME280;67485;48.816;9.930;2023-04-07T08:24:04;96681.00;;;7.43;84.65
78210;BME280;67485;48.816;9.930;2023-04-07T08:26:30;96678.59;;;7.82;83.60
78210;BME280;67485;48.816;9.930;2023-04-07T08:28:56;96680.38;;;7.80;81.61
78210;BME280;67485;48.816;9.930;2023-04-07T08:31:22;96685.53;;;7.83;82.01
78210;BME280;67485;48.816;9.930;2023-04-07T08:33:48;96678.22;;;8.04;82.36
78210;BME280;67485;48.816;9.930;2023-04-07T08:36:21;96681.91;;;8.37;82.49
78210;BME280;67485;48.816;9.930;2023-04-07T08:38:46;96683.75;;;8.32;82.30
78210;BME280;67485;48.816;9.930;2023-04-07T08:41:16;96678.53;;;8.76;80.71
78210;BME280;67485;48.816;9.930;2023-04-07T08:43:43;96682.56;;;8.91;79.65
78210;BME280;67485;48.816;9.930;2023-04-07T08:46:11;96684.94;;;8.61;79.35
78210;BME280;67485;48.816;9.930;2023-04-07T08:48:38;96684.00;;;8.64;78.61
78210;BME280;67485;48.816;9.930;2023-04-07T08:51:07;96686.50;;;8.70;79.44
78210;BME280;67485;48.816;9.930;2023-04-07T08:53:39;96692.03;;;8.97;78.66
78210;BME280;67485;48.816;9.930;2023-04-07T08:56:10;96683.63;;;9.21;77.52
78210;BME280;67485;48.816;9.930;2023-04-07T08:58:36;96689.88;;;9.14;77.62
78210;BME280;67485;48.816;9.930;2023-04-07T09:01:06;96689.78;;;9.56;75.87
78210;BME280;67485;48.816;9.930;2023-04-07T09:03:33;96695.44;;;9.36;76.93
78210;BME280;67485;48.816;9.930;2023-04-07T09:05:59;96688.84;;;9.59;76.24
78210;BME280;67485;48.816;9.930;2023-04-07T09:08:26;96694.56;;;10.08;74.70
78210;BME280;67485;48.816;9.930;2023-04-07T09:10:52;96694.41;;;10.13;74.24
78210;BME280;67485;48.816;9.930;2023-04-07T09:13:18;96686.88;;;9.67;75.62
78210;BME280;67485;48.816;9.930;2023-04-07T09:15:44;96687.16;;;10.22;75.68
78210;BME280;67485;48.816;9.930;2023-04-07T09:18:10;96686.31;;;10.85;72.03
78210;BME280;67485;48.816;9.930;2023-04-07T09:21:01;96682.72;;;10.58;71.31
78210;BME280;67485;48.816;9.930;2023-04-07T09:23:35;96685.50;;;9.87;70.02
78210;BME280;67485;48.816;9.930;2023-04-07T09:26:25;96681.94;;;10.22;71.46
78210;BME280;67485;48.816;9.930;2023-04-07T09:29:00;96682.19;;;10.76;70.89
78210;BME280;67485;48.816;9.930;2023-04-07T09:31:45;96685.22;;;10.62;69.23
78210;BME280;67485;48.816;9.930;2023-04-07T09:34:37;96683.66;;;10.57;70.80
78210;BME280;67485;48.816;9.930;2023-04-07T09:37:06;96690.22;;;10.40;70.20
78210;BME280;67485;48.816;9.930;2023-04-07T09:39:48;96686.47;;;10.50;67.46
78210;BME280;67485;48.816;9.930;2023-04-07T09:42:14;96681.38;;;10.44;68.62
78210;BME280;67485;48.816;9.930;2023-04-07T09:44:40;96684.81;;;10.76;68.81
78210;BME280;67485;48.816;9.930;2023-04-07T09:47:06;96683.00;;;10.48;68.21
78210;BME280;67485;48.816;9.930;2023-04-07T09:49:32;96689.06;;;9.84;70.42
78210;BME280;67485;48.816;9.930;2023-04-07T09:52:01;96693.94;;;9.64;72.04
78210;BME280;67485;48.816;9.930;2023-04-07T09:54:39;96686.72;;;9.73;70.14
78210;BME280;67485;48.816;9.930;2023-04-07T09:57:07;96689.47;;;10.02;70.45
78210;BME280;67485;48.816;9.930;2023-04-07T09:59:34;96699.28;;;9.94;71.70
78210;BME280;67485;48.816;9.930;2023-04-07T10:02:01;96690.03;;;10.46;70.29
78210;BME280;67485;48.816;9.930;2023-04-07T10:04:27;96699.75;;;10.10;70.29
78210;BME280;67485;48.816;9.930;2023-04-07T10:06:54;96699.84;;;10.40;69.69
78210;BME280;67485;48.816;9.930;2023-04-07T10:09:27;96696.97;;;10.16;70.24
78210;BME280;67485;48.816;9.930;2023-04-07T10:11:54;96703.78;;;9.88;71.08
78210;BME280;67485;48.816;9.930;2023-04-07T10:14:23;96702.78;;;9.94;72.25
78210;BME280;67485;48.816;9.930;2023-04-07T10:16:50;96698.78;;;9.79;70.31
78210;BME280;67485;48.816;9.930;2023-04-07T10:19:18;96703.94;;;9.82;69.83
78210;BME280;67485;48.816;9.930;2023-04-07T10:21:44;96706.50;;;9.84;70.49
78210;BME280;67485;48.816;9.930;2023-04-07T10:26:46;96701.84;;;9.95;68.18
78210;BME280;67485;48.816;9.930;2023-04-07T10:29:16;96706.50;;;9.84;70.06
78210;BME280;67485;48.816;9.930;2023-04-07T10:31:44;96704.38;;;9.65;70.80
78210;BME280;67485;48.816;9.930;2023-04-07T10:34:11;96703.09;;;9.82;70.17
78210;BME280;67485;48.816;9.930;2023-04-07T10:37:29;96706.94;;;10.34;69.13
78210;BME280;67485;48.816;9.930;2023-04-07T10:39:50;96698.88;;;10.74;66.44
78210;BME280;67485;48.816;9.930;2023-04-07T10:45:09;96705.00;;;10.74;66.76
78210;BME280;67485;48.816;9.930;2023-04-07T10:50:23;96707.25;;;10.57;65.98
78210;BME280;67485;48.816;9.930;2023-04-07T10:53:13;96706.88;;;10.69;67.01
78210;BME280;67485;48.816;9.930;2023-04-07T10:55:42;96705.75;;;10.46;66.46
78210;BME280;67485;48.816;9.930;2023-04-07T10:58:19;96704.22;;;11.00;66.66
78210;BME280;67485;48.816;9.930;2023-04-07T11:03:34;96699.44;;;11.95;65.16
78210;BME280;67485;48.816;9.930;2023-04-07T11:06:08;96696.88;;;11.67;64.61
78210;BME280;67485;48.816;9.930;2023-04-07T11:08:34;96695.50;;;12.34;63.38
78210;BME280;67485;48.816;9.930;2023-04-07T11:11:01;96701.41;;;13.34;61.42
78210;BME280;67485;48.816;9.930;2023-04-07T11:13:27;96698.81;;;12.39;61.04
78210;BME280;67485;48.816;9.930;2023-04-07T11:15:52;96691.72;;;12.18;62.54
78210;BME280;67485;48.816;9.930;2023-04-07T11:18:20;96691.81;;;13.11;60.44
78210;BME280;67485;48.816;9.930;2023-04-07T11:20:52;96684.81;;;13.56;58.27
78210;BME280;67485;48.816;9.930;2023-04-07T11:23:20;96681.53;;;15.13;55.35
78210;BME280;67485;48.816;9.930;2023-04-07T11:25:49;96682.31;;;14.96;52.80
78210;BME280;67485;48.816;9.930;2023-04-07T11:28:16;96680.78;;;14.31;55.26
78210;BME280;67485;48.816;9.930;2023-04-07T11:30:50;96688.91;;;13.41;58.85
78210;BME280;67485;48.816;9.930;2023-04-07T11:33:22;96688.88;;;13.19;59.80
78210;BME280;67485;48.816;9.930;2023-04-07T11:35:50;96686.88;;;12.79;59.52
78210;BME280;67485;48.816;9.930;2023-04-07T11:38:17;96689.25;;;12.38;60.80
78210;BME280;67485;48.816;9.930;2023-04-07T11:40:42;96691.38;;;12.52;60.76
78210;BME280;67485;48.816;9.930;2023-04-07T11:43:24;96690.28;;;11.82;62.40
78210;BME280;67485;48.816;9.930;2023-04-07T11:48:29;96692.19;;;11.77;63.58
78210;BME280;67485;48.816;9.930;2023-04-07T11:50:55;96695.09;;;11.96;63.64
78210;BME280;67485;48.816;9.930;2023-04-07T11:53:39;96691.38;;;12.27;60.78
78210;BME280;67485;48.816;9.930;2023-04-07T11:56:10;96686.63;;;12.62;60.97
78210;BME280;67485;48.816;9.930;2023-04-07T11:58:51;96683.50;;;12.51;60.13
78210;BME280;67485;48.816;9.930;2023-04-07T12:01:17;96682.16;;;12.64;58.79
78210;BME280;67485;48.816;9.930;2023-04-07T12:04:00;96684.91;;;12.85;60.06
78210;BME280;67485;48.816;9.930;2023-04-07T12:06:32;96679.41;;;13.14;60.42
78210;BME280;67485;48.816;9.930;2023-04-07T12:09:03;96687.66;;;12.81;59.77
78210;BME280;67485;48.816;9.930;2023-04-07T12:11:30;96684.47;;;12.73;59.33
78210;BME280;67485;48.816;9.930;2023-04-07T12:13:56;96682.38;;;12.09;59.73
78210;BME280;67485;48.816;9.930;2023-04-07T12:16:22;96684.22;;;12.79;58.25
78210;BME280;67485;48.816;9.930;2023-04-07T12:18:48;96688.69;;;13.23;57.83
78210;BME280;67485;48.816;9.930;2023-04-07T12:21:16;96684.34;;;12.76;57.96
78210;BME280;67485;48.816;9.930;2023-04-07T12:23:42;96684.63;;;12.45;59.16
78210;BME280;67485;48.816;9.930;2023-04-07T12:26:08;96679.84;;;12.31;61.24
78210;BME280;67485;48.816;9.930;2023-04-07T12:28:36;96683.25;;;12.82;59.27
78210;BME280;67485;48.816;9.930;2023-04-07T12:31:02;96677.41;;;13.43;58.03
78210;BME280;67485;48.816;9.930;2023-04-07T12:33:29;96676.13;;;12.62;58.70
78210;BME280;67485;48.816;9.930;2023-04-07T12:35:55;96676.00;;;11.89;60.25
78210;BME280;67485;48.816;9.930;2023-04-07T12:38:21;96683.31;;;11.81;61.47
78210;BME280;67485;48.816;9.930;2023-04-07T12:40:47;96677.28;;;11.77;61.71
78210;BME280;67485;48.816;9.930;2023-04-07T12:43:12;96680.38;;;11.63;60.98
78210;BME280;67485;48.816;9.930;2023-04-07T12:45:38;96676.78;;;11.66;62.29
78210;BME280;67485;48.816;9.930;2023-04-07T12:48:04;96674.63;;;12.06;61.41
78210;BME280;67485;48.816;9.930;2023-04-07T12:50:30;96668.75;;;11.97;61.37
78210;BME280;67485;48.816;9.930;2023-04-07T12:52:56;96679.75;;;11.55;62.53
78210;BME280;67485;48.816;9.930;2023-04-07T12:55:23;96670.66;;;11.67;62.60
78210;BME280;67485;48.816;9.930;2023-04-07T12:57:49;96680.44;;;11.62;61.67
78210;BME280;67485;48.816;9.930;2023-04-07T13:00:15;96668.81;;;11.96;60.96
78210;BME280;67485;48.816;9.930;2023-04-07T13:02:41;96670.69;;;12.18;61.11
78210;BME280;67485;48.816;9.930;2023-04-07T13:05:08;96669.81;;;12.90;59.90
78210;BME280;67485;48.816;9.930;2023-04-07T13:07:34;96670.59;;;12.68;58.83
78210;BME280;67485;48.816;9.930;2023-04-07T13:10:01;96669.81;;;12.90;58.99
78210;BME280;67485;48.816;9.930;2023-04-07T13:12:27;96675.63;;;12.98;58.14
78210;BME280;67485;48.816;9.930;2023-04-07T13:14:53;96667.09;;;13.15;56.83
78210;BME280;67485;48.816;9.930;2023-04-07T13:17:18;96670.72;;;13.35;55.19
78210;BME280;67485;48.816;9.930;2023-04-07T13:19:44;96662.63;;;13.39;55.42
78210;BME280;67485;48.816;9.930;2023-04-07T13:22:13;96668.00;;;13.36;55.36
78210;BME280;67485;48.816;9.930;2023-04-07T13:24:39;96661.66;;;14.05;54.20
78210;BME280;67485;48.816;9.930;2023-04-07T13:27:05;96658.38;;;14.00;53.43
78210;BME280;67485;48.816;9.930;2023-04-07T13:29:30;96655.28;;;14.11;52.58
78210;BME280;67485;48.816;9.930;2023-04-07T13:32:06;96661.25;;;13.29;55.43